Scappoose, OR

10:28 PM PDT on August 28, 2016 (GMT -0700)
Scappoose Industrial | | Change Station

Elev 56 ft 45.77 °N, 122.86 °W | Updated 35 minutes ago

Clear
Clear
69 °F
Feels Like 69 °F
N
9
Wind Variable Wind from North

Today
High -- | Low -- °F
--% Chance of Precip.
Yesterday
High -- | Low -- °F
Precip. -- in
Pressure 30.00 in
Visibility 10.0 miles
Clouds Clear
Dew Point 52 °F
Humidity 54%
Rainfall 0.00 in
Snow Depth Not available.
6:28 AM 7:55 PM
Waning Crescent, 11% visible
METAR KSPB 290453Z AUTO 36008KT 10SM CLR 21/11 A3000 RMK AO2 SLP158 T02060111
Pressure 30.00 in
Visibility 10.0 miles
Clouds Clear
Dew Point 52 °F
Humidity 54%
Rainfall 0.00 in
Snow Depth Not available.
6:28 AM 7:55 PM
Waning Crescent, 11% visible
METAR KSPB 290453Z AUTO 36008KT 10SM CLR 21/11 A3000 RMK AO2 SLP158 T02060111

10-Day Weather Forecast

Almanac

Astronomy

Aug. 28, 2016 Rise Set
Actual Time
Civil Twilight
Nautical Twilight
Astronomical Twilight
Moon
Length of Visible Light
Length of Day
Tomorrow will be .
, % of the Moon is Illuminated

Today's Extremes

State Highs State Lows

Community

WunderPhotos

Upload Photos

1,935,800 photos uploaded!

WunderBlog® & News

Nearby

Air Quality

  Air Quality AQ Index Pollutant
Not available.

Snow Depth

Station Depth Elevation

Earthquake Activity

City Distance Mag. Time & Date
Minimum magnitude displayed is 2.5.

Coastal Water Temperatures

Place Temperature

Stations

Nearby Weather Stations

Station Location Temp. Windchill Dew Point Humidity Wind Precip. Elev Updated Type
                   

Watches & Warnings

There are currently no watches in effect.